createdAt,value
2022-12-19T00:04:09.955Z,-3.10
2022-12-19T00:09:12.970Z,-2.82
2022-12-19T00:14:15.089Z,-2.89
2022-12-19T00:19:17.085Z,-3.04
2022-12-19T00:24:21.482Z,-2.91
2022-12-19T00:29:23.945Z,-2.77
2022-12-19T00:34:26.056Z,-2.96
2022-12-19T00:39:28.066Z,-2.95
2022-12-19T00:44:30.073Z,-3.13
2022-12-19T00:49:32.095Z,-3.07
2022-12-19T00:54:35.640Z,-3.17
2022-12-19T00:59:37.792Z,-3.13
2022-12-19T01:04:41.690Z,-3.23
2022-12-19T01:09:44.202Z,-3.15
2022-12-19T01:14:48.163Z,-3.08
2022-12-19T01:19:50.137Z,-3.03
2022-12-19T01:24:52.162Z,-2.97
2022-12-19T01:29:54.235Z,-2.96
2022-12-19T01:34:56.517Z,-2.79
2022-12-19T01:39:58.510Z,-3.03
2022-12-19T01:45:13.400Z,-2.84
2022-12-19T01:50:20.959Z,-2.67
2022-12-19T01:55:23.433Z,-2.53
2022-12-19T02:00:25.507Z,-2.49
2022-12-19T02:05:27.723Z,-2.50
2022-12-19T02:10:29.835Z,-2.41
2022-12-19T02:15:41.536Z,-2.47
2022-12-19T02:20:52.001Z,-2.34
2022-12-19T02:26:12.129Z,-2.32
2022-12-19T02:31:33.398Z,-2.42
2022-12-19T02:36:42.647Z,-2.48
2022-12-19T02:41:55.108Z,-2.41
2022-12-19T02:47:00.712Z,-2.41
2022-12-19T02:52:33.576Z,-2.50
2022-12-19T02:58:05.958Z,-2.54
2022-12-19T03:03:37.247Z,-2.57
2022-12-19T03:09:08.519Z,-2.52
2022-12-19T03:14:15.991Z,-2.49
2022-12-19T03:19:18.176Z,-2.49
2022-12-19T03:24:20.324Z,-2.42
2022-12-19T03:29:49.863Z,-2.43
2022-12-19T03:35:10.907Z,-2.36
2022-12-19T03:40:18.045Z,-2.33
2022-12-19T03:45:40.447Z,-2.47
2022-12-19T03:50:59.383Z,-2.31
2022-12-19T03:56:11.270Z,-2.26
2022-12-19T04:01:13.944Z,-2.32
2022-12-19T04:06:17.029Z,-2.37
2022-12-19T04:11:20.618Z,-2.34
2022-12-19T04:16:22.592Z,-2.13
2022-12-19T04:21:32.069Z,-2.10
2022-12-19T04:26:36.610Z,-2.12
2022-12-19T04:31:39.348Z,-2.01
2022-12-19T04:36:41.414Z,-2.05
2022-12-19T04:41:43.484Z,-2.00
2022-12-19T04:46:45.603Z,-2.05
2022-12-19T04:51:47.712Z,-1.96
2022-12-19T04:56:49.724Z,-2.03
2022-12-19T05:01:51.878Z,-1.87
2022-12-19T05:06:53.976Z,-1.82
2022-12-19T05:11:55.984Z,-1.75
2022-12-19T05:17:01.547Z,-1.76
2022-12-19T05:22:04.198Z,-1.83
2022-12-19T05:27:07.445Z,-1.84
2022-12-19T05:32:09.501Z,-1.67
2022-12-19T05:37:11.529Z,-1.65
2022-12-19T05:42:13.871Z,-1.53
2022-12-19T05:47:15.891Z,-1.56
2022-12-19T05:52:17.995Z,-1.45
2022-12-19T05:57:20.154Z,-1.37
2022-12-19T06:02:22.813Z,-1.43
2022-12-19T06:07:24.992Z,-1.39
2022-12-19T06:12:27.081Z,-1.37
2022-12-19T06:17:29.092Z,-1.36
2022-12-19T06:22:31.516Z,-1.41
2022-12-19T06:27:33.858Z,-1.35
2022-12-19T06:32:38.048Z,-1.33
2022-12-19T06:37:40.439Z,-1.30
2022-12-19T06:42:42.460Z,-1.16
2022-12-19T06:47:44.469Z,-0.99
2022-12-19T06:52:46.542Z,-0.90
2022-12-19T06:57:48.684Z,-0.86
2022-12-19T07:02:52.290Z,-0.87
2022-12-19T07:07:54.379Z,-0.83
2022-12-19T07:12:56.864Z,-0.85
2022-12-19T07:18:00.101Z,-0.73
2022-12-19T07:23:04.086Z,-0.73
2022-12-19T07:28:07.628Z,-0.63
2022-12-19T07:33:11.543Z,-0.82
2022-12-19T07:38:14.894Z,-0.69
2022-12-19T07:43:17.015Z,-0.71
2022-12-19T07:48:19.055Z,-0.81
2022-12-19T07:53:21.163Z,-0.77
2022-12-19T07:58:23.452Z,-0.70
2022-12-19T08:03:25.920Z,-0.88
2022-12-19T08:08:29.992Z,-0.62
2022-12-19T08:13:37.968Z,-0.30
2022-12-19T08:18:41.893Z,-0.04
2022-12-19T08:23:45.953Z,0.26
2022-12-19T08:28:48.255Z,0.51
2022-12-19T08:33:51.369Z,0.48
2022-12-19T08:38:54.580Z,0.51
2022-12-19T08:43:56.675Z,0.81
2022-12-19T08:48:58.867Z,0.97
2022-12-19T08:54:02.018Z,1.14
2022-12-19T08:59:09.794Z,1.25
2022-12-19T09:06:00.193Z,1.58
2022-12-19T09:09:37.110Z,1.67
2022-12-19T09:14:39.258Z,1.96
2022-12-19T09:19:43.047Z,2.13
2022-12-19T09:24:50.040Z,2.13
2022-12-19T09:29:52.044Z,2.30
2022-12-19T09:34:54.142Z,2.53
2022-12-19T09:39:58.900Z,2.83
2022-12-19T09:45:31.252Z,3.11
2022-12-19T09:51:10.577Z,3.75
2022-12-19T09:56:15.871Z,5.47
2022-12-19T10:01:30.721Z,5.80
2022-12-19T10:07:14.005Z,5.41
2022-12-19T10:12:46.249Z,8.63
2022-12-19T10:18:18.529Z,8.74
2022-12-19T10:23:38.902Z,9.18
2022-12-19T10:28:56.140Z,8.13
2022-12-19T10:34:07.181Z,11.00
2022-12-19T10:39:33.303Z,11.63
2022-12-19T10:44:40.045Z,13.07
2022-12-19T10:49:42.343Z,15.09
2022-12-19T10:54:44.560Z,18.03
2022-12-19T11:00:00.391Z,19.63
2022-12-19T11:05:04.552Z,17.63
2022-12-19T11:15:49.500Z,16.14
2022-12-19T11:21:32.038Z,18.49
2022-12-19T11:29:30.008Z,15.93
2022-12-19T11:30:25.556Z,12.11
2022-12-19T11:33:18.185Z,11.78
2022-12-19T11:38:37.356Z,14.25
2022-12-19T11:44:11.846Z,16.84
2022-12-19T11:49:19.773Z,20.09
2022-12-19T11:54:27.151Z,16.03
2022-12-19T11:59:35.562Z,14.82
2022-12-19T12:05:45.691Z,14.48
2022-12-19T12:18:40.774Z,13.04
2022-12-19T12:26:41.311Z,14.95
2022-12-19T12:31:20.455Z,13.44
2022-12-19T12:31:42.622Z,10.57
2022-12-19T12:35:51.817Z,9.83
2022-12-19T12:39:14.534Z,11.58
2022-12-19T12:44:22.650Z,9.36
2022-12-19T12:49:55.520Z,8.58
2022-12-19T12:54:58.498Z,8.37
2022-12-19T13:00:17.676Z,9.36
2022-12-19T13:05:22.707Z,6.82
2022-12-19T13:10:28.414Z,5.65
2022-12-19T13:15:32.694Z,4.91
2022-12-19T13:20:48.135Z,4.14
2022-12-19T13:25:55.126Z,3.41
2022-12-19T13:31:19.722Z,3.08
2022-12-19T13:39:50.749Z,2.96
2022-12-19T13:42:40.778Z,2.92
2022-12-19T13:47:45.128Z,2.47
2022-12-19T13:52:51.182Z,2.40
2022-12-19T13:57:54.633Z,2.07
2022-12-19T14:02:59.337Z,1.91
2022-12-19T14:08:05.300Z,1.83
2022-12-19T14:13:49.216Z,1.63
2022-12-19T14:18:56.948Z,1.27
2022-12-19T14:24:17.863Z,1.04
2022-12-19T14:30:26.710Z,0.74
2022-12-19T14:36:05.320Z,0.55
2022-12-19T14:40:28.084Z,0.17
2022-12-19T14:54:03.375Z,0.12
2022-12-19T14:54:41.626Z,0.01
2022-12-19T14:57:02.296Z,-0.27
2022-12-19T15:02:07.371Z,-0.30
2022-12-19T15:07:31.824Z,-0.44
2022-12-19T15:14:49.483Z,-0.47
2022-12-19T15:18:37.268Z,-0.54
2022-12-19T15:23:39.710Z,-0.61
2022-12-19T15:28:46.241Z,-0.63
2022-12-19T15:34:23.451Z,-0.67
2022-12-19T15:39:10.290Z,-0.93
2022-12-19T15:44:24.785Z,-0.95
2022-12-19T15:49:26.840Z,-0.91
2022-12-19T15:59:52.017Z,-0.90
2022-12-19T16:04:59.937Z,-0.93
2022-12-19T16:10:06.412Z,-0.98
2022-12-19T16:15:24.878Z,-1.01
2022-12-19T16:20:29.822Z,-1.00
2022-12-19T16:25:45.888Z,-0.91
2022-12-19T16:30:50.425Z,-0.74
2022-12-19T16:36:04.113Z,-0.75
2022-12-19T16:41:17.401Z,-0.63
2022-12-19T16:46:23.494Z,-0.46
2022-12-19T16:51:27.753Z,-0.51
2022-12-19T16:56:36.431Z,-0.38
2022-12-19T17:01:38.562Z,-0.27
2022-12-19T17:06:41.181Z,-0.35
2022-12-19T17:11:45.982Z,-0.29
2022-12-19T17:16:48.393Z,-0.34
2022-12-19T17:21:51.895Z,-0.36
2022-12-19T17:26:53.962Z,-0.40
2022-12-19T17:31:56.085Z,-0.31
2022-12-19T17:37:00.503Z,-0.43
2022-12-19T17:42:36.853Z,-0.32
2022-12-19T17:47:39.610Z,-0.30
2022-12-19T17:52:41.688Z,-0.33
2022-12-19T17:57:43.802Z,-0.32
2022-12-19T18:02:48.112Z,-0.14
2022-12-19T18:07:50.739Z,-0.25
2022-12-19T18:12:53.885Z,-0.22
2022-12-19T18:17:57.303Z,-0.31
2022-12-19T18:23:00.731Z,-0.17
2022-12-19T18:28:02.797Z,-0.16
2022-12-19T18:33:06.320Z,-0.10
2022-12-19T18:38:12.863Z,-0.16
2022-12-19T18:43:16.570Z,-0.25
2022-12-19T18:48:36.940Z,-0.16
2022-12-19T18:53:39.114Z,-0.17
2022-12-19T18:58:41.436Z,-0.24
2022-12-19T19:03:57.535Z,-0.27
2022-12-19T19:09:00.291Z,-0.28
2022-12-19T19:14:02.359Z,-0.32
2022-12-19T19:19:07.241Z,-0.39
2022-12-19T19:24:14.591Z,-0.26
2022-12-19T19:29:18.986Z,-0.34
2022-12-19T19:34:28.177Z,-0.34
2022-12-19T19:39:33.103Z,-0.34
2022-12-19T19:44:35.153Z,-0.36
2022-12-19T19:49:37.255Z,-0.39
2022-12-19T19:54:39.389Z,-0.27
2022-12-19T19:59:41.537Z,-0.15
2022-12-19T20:04:43.975Z,-0.16
2022-12-19T20:09:46.363Z,-0.27
2022-12-19T20:14:48.434Z,-0.26
2022-12-19T20:19:51.441Z,-0.35
2022-12-19T20:24:54.200Z,-0.28
2022-12-19T20:29:56.804Z,-0.35
2022-12-19T20:34:59.227Z,-0.32
2022-12-19T20:40:01.336Z,-0.38
2022-12-19T20:45:03.637Z,-0.16
2022-12-19T20:50:07.593Z,-0.23
2022-12-19T20:55:09.951Z,-0.27
2022-12-19T21:00:14.770Z,-0.27
2022-12-19T21:05:17.364Z,-0.40
2022-12-19T21:10:20.509Z,-0.19
2022-12-19T21:15:23.141Z,-0.22
2022-12-19T21:20:29.515Z,-0.36
2022-12-19T21:25:36.143Z,-0.30
2022-12-19T21:30:38.223Z,-0.22
2022-12-19T21:35:40.332Z,-0.25
2022-12-19T21:40:42.362Z,-0.31
2022-12-19T21:45:44.486Z,-0.28
2022-12-19T21:50:55.554Z,-0.32
2022-12-19T21:56:25.339Z,-0.37
2022-12-19T22:01:28.131Z,-0.31
2022-12-19T22:06:31.951Z,-0.43
2022-12-19T22:11:35.820Z,-0.49
2022-12-19T22:16:38.607Z,-0.41
2022-12-19T22:21:40.702Z,-0.33
2022-12-19T22:26:43.311Z,-0.38
2022-12-19T22:31:46.101Z,-0.41
2022-12-19T22:36:49.758Z,-0.59
2022-12-19T22:41:51.904Z,-0.56
2022-12-19T22:46:53.941Z,-0.72
2022-12-19T22:51:56.017Z,-0.62
2022-12-19T22:56:58.046Z,-0.74
2022-12-19T23:02:00.329Z,-0.81
2022-12-19T23:07:02.501Z,-0.81
2022-12-19T23:12:04.697Z,-1.04
2022-12-19T23:17:06.824Z,-0.93
2022-12-19T23:22:09.025Z,-1.02
2022-12-19T23:27:11.367Z,-1.20
2022-12-19T23:32:13.439Z,-1.30
2022-12-19T23:37:15.480Z,-1.24
2022-12-19T23:42:17.578Z,-1.38
2022-12-19T23:47:19.779Z,-1.32
2022-12-19T23:52:22.356Z,-1.51
2022-12-19T23:57:24.379Z,-1.45
